Time;durP1;ratioP1;P1;durP2;ratioP2;P2;SDS_P1;SDS_P2;PMS_P1;PMS_P2;Temp;Humidity;BMP_temperature;BMP_pressure;BME280_temperature;BME280_humidity;BME280_pressure;Samples;Min_cycle;Max_cycle;Signal;HPM_P1;HPM_P2
2021/09/15 00:00:57;;;;;;;8.65;4.65;;;;;;;;;;4913095;29;20028;-84
2021/09/15 00:03:43;;;;;;;9.82;5.30;;;;;;;;;;4913093;29;20027;-85
2021/09/15 00:06:28;;;;;;;8.13;4.88;;;;;;;;;;4915072;29;20044;-86
2021/09/15 00:09:13;;;;;;;11.13;5.30;;;;;;;;;;4914024;29;20046;-86
2021/09/15 00:11:59;;;;;;;10.95;4.82;;;;;;;;;;4898691;29;20058;-86
2021/09/15 00:14:44;;;;;;;9.15;5.10;;;;;;;;;;4914278;29;20110;-85
2021/09/15 00:17:29;;;;;;;8.38;4.82;;;;;;;;;;4911556;29;20251;-85
2021/09/15 00:20:14;;;;;;;9.25;5.22;;;;;;;;;;4912542;29;20039;-85
2021/09/15 00:22:59;;;;;;;9.77;5.30;;;;;;;;;;4915316;29;20043;-86
2021/09/15 00:25:45;;;;;;;7.05;4.97;;;;;;;;;;4894024;29;20024;-85
2021/09/15 00:28:30;;;;;;;9.35;4.60;;;;;;;;;;5037338;23;20415;-85
2021/09/15 00:31:15;;;;;;;7.50;4.70;;;;;;;;;;4887774;29;20031;-86
2021/09/15 00:34:01;;;;;;;7.60;4.95;;;;;;;;;;4906371;29;20020;-86
2021/09/15 00:36:46;;;;;;;8.25;5.50;;;;;;;;;;4908203;29;20027;-85
2021/09/15 00:39:31;;;;;;;10.20;5.20;;;;;;;;;;4895209;29;20403;-84
2021/09/15 00:42:16;;;;;;;7.88;5.43;;;;;;;;;;4906047;29;20129;-85
2021/09/15 00:45:02;;;;;;;8.52;5.30;;;;;;;;;;4894252;29;20038;-84
2021/09/15 00:47:47;;;;;;;11.88;6.00;;;;;;;;;;4890846;29;20035;-86
2021/09/15 00:50:33;;;;;;;11.45;5.05;;;;;;;;;;4892288;29;20036;-85
2021/09/15 00:53:18;;;;;;;9.50;5.25;;;;;;;;;;4909532;29;20024;-83
2021/09/15 00:56:04;;;;;;;7.85;5.13;;;;;;;;;;4901941;29;20115;-84
2021/09/15 00:58:49;;;;;;;7.15;4.95;;;;;;;;;;4900643;29;20032;-85
2021/09/15 01:01:35;;;;;;;12.15;4.88;;;;;;;;;;4916818;29;20025;-86
2021/09/15 01:04:20;;;;;;;8.23;5.22;;;;;;;;;;4899213;29;20111;-86
2021/09/15 01:07:05;;;;;;;9.68;5.65;;;;;;;;;;4899740;29;20181;-87
2021/09/15 01:09:51;;;;;;;7.15;5.38;;;;;;;;;;4895242;29;20024;-86
2021/09/15 01:12:37;;;;;;;11.27;5.80;;;;;;;;;;4901918;29;20036;-86
2021/09/15 01:15:23;;;;;;;7.95;5.63;;;;;;;;;;4898048;29;20031;-84
2021/09/15 01:18:12;;;;;;;9.65;5.85;;;;;;;;;;4887394;29;20032;-85
2021/09/15 01:20:58;;;;;;;;;;;;;;;;;;4895458;29;20119;-85
2021/09/15 01:23:43;;;;;;;8.48;5.72;;;;;;;;;;4901313;29;19915;-85
2021/09/15 01:26:32;;;;;;;6.75;4.70;;;;;;;;;;4887936;29;20672;-85
2021/09/15 01:29:19;;;;;;;11.63;6.10;;;;;;;;;;4899145;29;20056;-85
2021/09/15 01:32:07;;;;;;;9.70;6.22;;;;;;;;;;4897958;29;20090;-84
2021/09/15 01:34:52;;;;;;;8.63;5.30;;;;;;;;;;4912061;29;20048;-84
2021/09/15 01:37:37;;;;;;;14.90;5.57;;;;;;;;;;4902070;29;20079;-85
2021/09/15 01:40:23;;;;;;;13.90;6.20;;;;;;;;;;4901988;29;20036;-85
2021/09/15 01:43:08;;;;;;;10.93;6.55;;;;;;;;;;4901389;29;20558;-85
2021/09/15 01:45:54;;;;;;;12.82;6.90;;;;;;;;;;4885826;29;20052;-86
2021/09/15 01:48:39;;;;;;;11.15;6.15;;;;;;;;;;4914527;29;20051;-85
2021/09/15 01:51:24;;;;;;;11.32;6.32;;;;;;;;;;4898479;29;20024;-85
2021/09/15 01:54:09;;;;;;;12.48;6.50;;;;;;;;;;4900941;29;20052;-85
2021/09/15 01:56:55;;;;;;;12.30;6.13;;;;;;;;;;4896551;29;20016;-85
2021/09/15 01:59:40;;;;;;;11.13;6.55;;;;;;;;;;4898694;29;20110;-85
2021/09/15 02:02:25;;;;;;;12.40;6.90;;;;;;;;;;4896348;29;20016;-85
2021/09/15 02:05:11;;;;;;;14.52;7.07;;;;;;;;;;4900301;29;20047;-85
2021/09/15 02:07:56;;;;;;;10.40;6.97;;;;;;;;;;4897270;29;20024;-84
2021/09/15 02:10:43;;;;;;;11.18;6.68;;;;;;;;;;4900549;29;20020;-86
2021/09/15 02:13:28;;;;;;;9.38;6.68;;;;;;;;;;4898881;29;20039;-86
2021/09/15 02:16:13;;;;;;;12.20;6.88;;;;;;;;;;4900800;29;20032;-85
2021/09/15 02:18:59;;;;;;;12.98;7.43;;;;;;;;;;4899886;29;20032;-85
2021/09/15 02:21:45;;;;;;;13.63;6.85;;;;;;;;;;4898553;29;20020;-85
2021/09/15 02:24:30;;;;;;;12.63;6.85;;;;;;;;;;4897262;29;20016;-84
2021/09/15 02:27:15;;;;;;;12.63;6.57;;;;;;;;;;4899184;29;20028;-85
2021/09/15 02:30:00;;;;;;;10.18;6.55;;;;;;;;;;4905732;29;20056;-86
2021/09/15 02:32:46;;;;;;;10.85;5.82;;;;;;;;;;4892587;29;20032;-85
2021/09/15 02:35:31;;;;;;;9.10;5.75;;;;;;;;;;4894431;29;20087;-84
2021/09/15 02:38:17;;;;;;;12.38;5.97;;;;;;;;;;4909349;29;20029;-85
2021/09/15 02:41:02;;;;;;;10.18;6.07;;;;;;;;;;4907285;29;20112;-85
2021/09/15 02:43:47;;;;;;;9.43;6.13;;;;;;;;;;4892821;29;20076;-85
2021/09/15 02:46:32;;;;;;;8.63;5.57;;;;;;;;;;4893890;29;20056;-85
2021/09/15 02:49:18;;;;;;;10.57;6.63;;;;;;;;;;4890044;29;20020;-84
2021/09/15 02:52:03;;;;;;;11.40;6.53;;;;;;;;;;4880635;29;20020;-85
2021/09/15 02:54:48;;;;;;;10.38;6.53;;;;;;;;;;4895727;29;20039;-84
2021/09/15 02:57:34;;;;;;;8.75;6.13;;;;;;;;;;4893850;29;20028;-85
2021/09/15 03:00:19;;;;;;;10.02;5.97;;;;;;;;;;4893008;29;20040;-85
2021/09/15 03:03:04;;;;;;;10.18;5.88;;;;;;;;;;4905605;29;20039;-85
2021/09/15 03:05:50;;;;;;;10.02;6.18;;;;;;;;;;4893168;29;20448;-85
2021/09/15 03:08:35;;;;;;;9.35;5.93;;;;;;;;;;4892535;29;20039;-86
2021/09/15 03:11:21;;;;;;;16.20;6.72;;;;;;;;;;4893106;29;20101;-86
2021/09/15 03:14:06;;;;;;;9.88;6.40;;;;;;;;;;4892410;29;20112;-87
2021/09/15 03:16:54;;;;;;;9.07;5.88;;;;;;;;;;4894597;29;20034;-86
2021/09/15 03:19:39;;;;;;;11.13;6.47;;;;;;;;;;4889896;29;20048;-85
2021/09/15 03:22:25;;;;;;;9.73;6.00;;;;;;;;;;4893495;29;20024;-85
2021/09/15 03:25:10;;;;;;;9.88;5.47;;;;;;;;;;4888044;29;20043;-85
2021/09/15 03:27:56;;;;;;;9.20;6.78;;;;;;;;;;4901586;29;20058;-85
2021/09/15 03:30:41;;;;;;;10.18;6.35;;;;;;;;;;4912849;29;20039;-84
2021/09/15 03:33:26;;;;;;;9.43;5.95;;;;;;;;;;4915435;29;20011;-84
2021/09/15 03:36:11;;;;;;;7.32;5.38;;;;;;;;;;4929876;29;20107;-86
2021/09/15 03:38:56;;;;;;;8.98;5.90;;;;;;;;;;4918275;29;20031;-85
2021/09/15 03:41:42;;;;;;;9.77;5.93;;;;;;;;;;4912748;29;20034;-84
2021/09/15 03:44:28;;;;;;;12.13;6.78;;;;;;;;;;4918212;29;20167;-84
2021/09/15 03:47:13;;;;;;;11.35;5.85;;;;;;;;;;4917042;29;20106;-84
2021/09/15 03:49:58;;;;;;;11.95;6.65;;;;;;;;;;4916369;29;20118;-86
2021/09/15 03:52:44;;;;;;;10.43;6.60;;;;;;;;;;4912462;29;20028;-84
2021/09/15 03:55:29;;;;;;;11.77;7.05;;;;;;;;;;4917359;29;20027;-85
2021/09/15 03:58:14;;;;;;;7.38;6.03;;;;;;;;;;4917590;29;20136;-86
2021/09/15 04:00:59;;;;;;;14.98;7.00;;;;;;;;;;4903910;29;20016;-84
2021/09/15 04:03:45;;;;;;;11.80;6.63;;;;;;;;;;4918655;29;20341;-85
2021/09/15 04:06:30;;;;;;;11.05;6.43;;;;;;;;;;4917018;29;20019;-85
2021/09/15 04:09:15;;;;;;;9.88;6.85;;;;;;;;;;4921103;29;20425;-85
2021/09/15 04:12:00;;;;;;;8.98;6.47;;;;;;;;;;4900119;29;20015;-85
2021/09/15 04:14:46;;;;;;;7.93;6.38;;;;;;;;;;4917272;29;20023;-85
2021/09/15 04:17:31;;;;;;;8.07;6.50;;;;;;;;;;4911161;29;20454;-85
2021/09/15 04:20:16;;;;;;;9.52;6.47;;;;;;;;;;4917589;29;20115;-85
2021/09/15 04:23:01;;;;;;;12.80;6.68;;;;;;;;;;4917453;29;20023;-86
2021/09/15 04:31:54;;;;;;;9.73;6.65;;;;;;;;;;4927799;29;20529;-85
2021/09/15 04:34:40;;;;;;;9.93;7.00;;;;;;;;;;4931650;29;20032;-84
2021/09/15 04:37:25;;;;;;;10.13;7.13;;;;;;;;;;4916346;29;20115;-85
2021/09/15 04:40:11;;;;;;;9.30;6.72;;;;;;;;;;4917559;29;20131;-85
2021/09/15 04:42:56;;;;;;;9.15;6.80;;;;;;;;;;4911284;29;20015;-85
2021/09/15 04:45:41;;;;;;;10.65;7.45;;;;;;;;;;4927071;29;20058;-85
2021/09/15 04:48:27;;;;;;;9.80;6.55;;;;;;;;;;4916200;29;20032;-84
2021/09/15 04:51:12;;;;;;;12.65;7.25;;;;;;;;;;4917993;29;20036;-85
2021/09/15 04:53:57;;;;;;;10.48;7.03;;;;;;;;;;4911739;29;20042;-87
2021/09/15 04:56:43;;;;;;;8.75;6.35;;;;;;;;;;4930922;29;20032;-85
2021/09/15 04:59:28;;;;;;;9.70;6.70;;;;;;;;;;4911171;29;20019;-85
2021/09/15 05:02:13;;;;;;;9.93;7.63;;;;;;;;;;4919085;29;20032;-85
2021/09/15 05:04:58;;;;;;;8.90;5.70;;;;;;;;;;4918947;29;20019;-86
2021/09/15 05:07:44;;;;;;;10.45;7.05;;;;;;;;;;4914768;29;20020;-85
2021/09/15 05:10:29;;;;;;;10.60;6.22;;;;;;;;;;4914336;29;20103;-87
2021/09/15 05:13:14;;;;;;;9.98;6.53;;;;;;;;;;4918783;29;20083;-84
2021/09/15 05:16:00;;;;;;;9.43;5.88;;;;;;;;;;4925580;29;20425;-85
2021/09/15 05:18:45;;;;;;;8.77;5.35;;;;;;;;;;4919973;29;20023;-86
2021/09/15 05:21:30;;;;;;;8.55;5.97;;;;;;;;;;4915135;29;20063;-85
2021/09/15 05:24:16;;;;;;;8.75;6.00;;;;;;;;;;4924572;29;20027;-85
2021/09/15 05:27:01;;;;;;;9.68;5.47;;;;;;;;;;4921499;29;20126;-85
2021/09/15 05:29:47;;;;;;;11.98;7.10;;;;;;;;;;4918468;29;20043;-86
2021/09/15 05:32:32;;;;;;;10.02;6.53;;;;;;;;;;4918927;29;20039;-83
2021/09/15 05:35:17;;;;;;;12.40;6.38;;;;;;;;;;4916493;29;20079;-83
2021/09/15 05:38:02;;;;;;;10.90;6.70;;;;;;;;;;4932985;28;20407;-83
2021/09/15 05:40:47;;;;;;;13.30;6.10;;;;;;;;;;4931877;29;20407;-82
2021/09/15 05:43:34;;;;;;;10.70;6.75;;;;;;;;;;4932637;29;20466;-82
2021/09/15 05:46:19;;;;;;;10.85;7.10;;;;;;;;;;4928356;29;20116;-81
2021/09/15 05:49:04;;;;;;;11.38;6.88;;;;;;;;;;4922110;29;20020;-82
2021/09/15 05:51:49;;;;;;;14.82;8.23;;;;;;;;;;4918330;29;20040;-82
2021/09/15 05:54:35;;;;;;;11.60;6.43;;;;;;;;;;4920022;29;20054;-83
2021/09/15 05:57:20;;;;;;;10.77;6.38;;;;;;;;;;4931980;29;20126;-82
2021/09/15 06:00:06;;;;;;;10.45;6.82;;;;;;;;;;4918758;29;20070;-82
2021/09/15 06:02:51;;;;;;;12.45;7.57;;;;;;;;;;4916756;29;20035;-83
2021/09/15 06:05:36;;;;;;;11.10;6.65;;;;;;;;;;4922262;29;20071;-85
2021/09/15 06:08:21;;;;;;;12.77;7.45;;;;;;;;;;4918722;29;20090;-81
2021/09/15 06:11:07;;;;;;;13.40;7.18;;;;;;;;;;4902107;29;20035;-81
2021/09/15 06:13:54;;;;;;;9.38;6.10;;;;;;;;;;4915390;29;20052;-82
2021/09/15 06:16:39;;;;;;;12.13;7.20;;;;;;;;;;4930667;29;20031;-84
2021/09/15 06:19:25;;;;;;;9.65;6.22;;;;;;;;;;4917167;29;20079;-81
2021/09/15 06:22:10;;;;;;;12.32;6.97;;;;;;;;;;4912322;29;20028;-82
2021/09/15 06:24:55;;;;;;;8.80;5.70;;;;;;;;;;4917822;29;20028;-83
2021/09/15 06:27:41;;;;;;;14.48;6.47;;;;;;;;;;4916102;29;20110;-82
2021/09/15 06:30:27;;;;;;;9.50;6.65;;;;;;;;;;4915810;29;20024;-85
2021/09/15 06:33:12;;;;;;;9.88;5.97;;;;;;;;;;4914455;29;20042;-84
2021/09/15 06:35:57;;;;;;;11.65;7.43;;;;;;;;;;4916319;29;20071;-82
2021/09/15 06:38:43;;;;;;;9.60;6.68;;;;;;;;;;4910427;29;20394;-80
2021/09/15 06:41:28;;;;;;;11.73;6.80;;;;;;;;;;4920128;29;20050;-82
2021/09/15 06:44:13;;;;;;;13.65;6.55;;;;;;;;;;4915565;29;20435;-81
2021/09/15 06:46:59;;;;;;;7.38;5.65;;;;;;;;;;4918045;29;20543;-80
2021/09/15 06:49:44;;;;;;;12.90;7.25;;;;;;;;;;4919738;29;20047;-83
2021/09/15 06:52:29;;;;;;;12.95;7.28;;;;;;;;;;4928297;29;20035;-82
2021/09/15 06:55:15;;;;;;;10.27;7.03;;;;;;;;;;4905138;29;20427;-82
2021/09/15 06:58:00;;;;;;;10.63;6.38;;;;;;;;;;4916325;29;20452;-82
2021/09/15 07:00:47;;;;;;;12.15;6.97;;;;;;;;;;4917780;29;20036;-83
2021/09/15 07:03:32;;;;;;;12.82;7.30;;;;;;;;;;4916439;29;20038;-82
2021/09/15 07:06:18;;;;;;;10.77;6.55;;;;;;;;;;4926785;29;20082;-83
2021/09/15 07:09:03;;;;;;;10.75;6.53;;;;;;;;;;4916579;29;20122;-82
2021/09/15 07:11:48;;;;;;;9.98;6.43;;;;;;;;;;4916621;29;20262;-83
2021/09/15 07:14:34;;;;;;;9.73;6.00;;;;;;;;;;4916146;29;20031;-83
2021/09/15 07:17:19;;;;;;;11.68;6.60;;;;;;;;;;4916507;29;20039;-83
2021/09/15 07:20:05;;;;;;;10.98;6.18;;;;;;;;;;4914429;29;20363;-81
2021/09/15 07:22:50;;;;;;;10.93;5.90;;;;;;;;;;4917641;29;20090;-81
2021/09/15 07:25:35;;;;;;;13.00;7.13;;;;;;;;;;4929752;29;20132;-81
2021/09/15 07:28:21;;;;;;;12.48;6.38;;;;;;;;;;4917858;29;20063;-83
2021/09/15 07:31:06;;;;;;;10.32;6.43;;;;;;;;;;4914516;29;20028;-83
2021/09/15 07:33:51;;;;;;;8.88;6.85;;;;;;;;;;4916975;29;20091;-82
2021/09/15 07:36:39;;;;;;;9.32;6.07;;;;;;;;;;4912412;29;20071;-83
2021/09/15 07:39:24;;;;;;;12.13;5.25;;;;;;;;;;4902901;29;20027;-84
2021/09/15 07:42:10;;;;;;;10.00;6.25;;;;;;;;;;4930436;29;20028;-81
2021/09/15 07:44:56;;;;;;;10.65;5.88;;;;;;;;;;4928855;29;20027;-83
2021/09/15 07:47:41;;;;;;;10.35;6.47;;;;;;;;;;4914502;29;20047;-82
2021/09/15 07:50:27;;;;;;;8.88;5.78;;;;;;;;;;4915142;29;20497;-82
2021/09/15 07:53:12;;;;;;;9.65;5.75;;;;;;;;;;4916039;29;20027;-82
2021/09/15 07:55:57;;;;;;;11.43;5.28;;;;;;;;;;4930228;29;20463;-87
2021/09/15 07:58:43;;;;;;;7.80;5.25;;;;;;;;;;4903839;29;20038;-81
2021/09/15 08:01:28;;;;;;;11.00;6.15;;;;;;;;;;4910598;29;20035;-82
2021/09/15 08:04:13;;;;;;;8.57;4.75;;;;;;;;;;4916371;29;20047;-82
2021/09/15 08:06:58;;;;;;;6.47;4.30;;;;;;;;;;4912637;29;20115;-83
2021/09/15 08:09:47;;;;;;;8.90;4.60;;;;;;;;;;4915649;29;20027;-84
2021/09/15 08:12:32;;;;;;;11.40;5.63;;;;;;;;;;4915529;29;20031;-83
2021/09/15 08:15:17;;;;;;;9.70;4.93;;;;;;;;;;4916026;29;20020;-82
2021/09/15 08:18:03;;;;;;;7.55;4.55;;;;;;;;;;4914266;29;20055;-83
2021/09/15 08:20:48;;;;;;;8.38;4.28;;;;;;;;;;4919038;29;20075;-82
2021/09/15 08:23:33;;;;;;;8.00;4.70;;;;;;;;;;4916442;29;20026;-81
2021/09/15 08:26:19;;;;;;;6.63;4.60;;;;;;;;;;4914672;29;20024;-83
2021/09/15 08:29:05;;;;;;;8.88;4.88;;;;;;;;;;4914844;29;20243;-83
2021/09/15 08:31:50;;;;;;;9.65;5.15;;;;;;;;;;4926607;29;20118;-82
2021/09/15 08:34:35;;;;;;;10.18;5.25;;;;;;;;;;4916100;29;20036;-82
2021/09/15 08:37:21;;;;;;;11.20;5.43;;;;;;;;;;4915173;29;20035;-83
2021/09/15 08:40:07;;;;;;;8.60;4.22;;;;;;;;;;4915739;29;20409;-83
2021/09/15 08:42:53;;;;;;;10.80;4.32;;;;;;;;;;4914832;29;20059;-83
2021/09/15 08:45:38;;;;;;;12.40;5.15;;;;;;;;;;4911486;29;20360;-83
2021/09/15 08:48:24;;;;;;;8.32;4.95;;;;;;;;;;4915255;29;20035;-83
2021/09/15 08:51:13;;;;;;;8.68;4.32;;;;;;;;;;4915749;29;20087;-82
2021/09/15 08:54:00;;;;;;;14.32;5.78;;;;;;;;;;4914902;29;20039;-82
2021/09/15 08:56:45;;;;;;;8.13;5.32;;;;;;;;;;4915629;29;20386;-83
2021/09/15 08:59:30;;;;;;;8.23;5.20;;;;;;;;;;4912494;29;20024;-82
2021/09/15 09:02:15;;;;;;;7.97;4.80;;;;;;;;;;4922171;29;20024;-82
2021/09/15 09:05:01;;;;;;;10.65;5.50;;;;;;;;;;4916362;29;20380;-82
2021/09/15 09:07:50;;;;;;;10.05;5.90;;;;;;;;;;4912181;29;20048;-83
2021/09/15 09:10:35;;;;;;;9.10;5.55;;;;;;;;;;4916012;29;20031;-83
2021/09/15 09:13:20;;;;;;;8.00;5.38;;;;;;;;;;4909601;29;20035;-82
2021/09/15 09:16:06;;;;;;;9.20;5.03;;;;;;;;;;4919035;29;20178;-83
2021/09/15 09:19:03;;;;;;;7.65;4.55;;;;;;;;;;4919679;29;20398;-82
2021/09/15 09:21:50;;;;;;;9.35;5.00;;;;;;;;;;4934705;29;20445;-81
2021/09/15 09:24:44;;;;;;;8.35;4.50;;;;;;;;;;4915766;29;20020;-84
2021/09/15 09:27:31;;;;;;;6.70;4.45;;;;;;;;;;4919812;29;20032;-80
2021/09/15 09:30:39;;;;;;;7.55;4.32;;;;;;;;;;4919955;29;20039;-88
2021/09/15 09:33:24;;;;;;;7.25;4.55;;;;;;;;;;4917929;29;20028;-83
2021/09/15 09:36:10;;;;;;;8.30;4.50;;;;;;;;;;4918976;29;20032;-81
2021/09/15 09:38:55;;;;;;;6.90;4.65;;;;;;;;;;4919067;29;20032;-84
2021/09/15 09:41:43;;;;;;;7.28;4.93;;;;;;;;;;4924990;23;20039;-84
2021/09/15 09:44:29;;;;;;;7.07;4.55;;;;;;;;;;4908100;29;20127;-84
2021/09/15 09:47:18;;;;;;;6.40;4.45;;;;;;;;;;4905530;29;20108;-85
2021/09/15 09:50:05;;;;;;;10.10;4.68;;;;;;;;;;4910333;29;20028;-84
2021/09/15 09:52:58;;;;;;;8.43;5.40;;;;;;;;;;4915400;29;20054;-85
2021/09/15 09:55:44;;;;;;;10.30;4.97;;;;;;;;;;4916411;29;20079;-84
2021/09/15 09:58:29;;;;;;;10.27;5.18;;;;;;;;;;4911293;29;20194;-83
2021/09/15 10:01:17;;;;;;;8.85;4.30;;;;;;;;;;4913286;29;20027;-84
2021/09/15 10:04:05;;;;;;;7.35;4.88;;;;;;;;;;4906835;29;20365;-81
2021/09/15 10:06:54;;;;;;;10.23;6.30;;;;;;;;;;4913060;29;20610;-82
2021/09/15 10:09:40;;;;;;;7.47;4.35;;;;;;;;;;4909454;29;20063;-83
2021/09/15 10:12:25;;;;;;;7.93;4.13;;;;;;;;;;4908867;29;20036;-83
2021/09/15 10:15:11;;;;;;;7.68;4.65;;;;;;;;;;4910399;29;20141;-84
2021/09/15 10:18:00;;;;;;;9.00;4.57;;;;;;;;;;4909251;29;20135;-84
2021/09/15 10:20:47;;;;;;;7.40;3.78;;;;;;;;;;4909450;29;20032;-83
2021/09/15 10:23:47;;;;;;;9.32;4.20;;;;;;;;;;4917462;29;20050;-83
2021/09/15 10:26:34;;;;;;;9.10;4.68;;;;;;;;;;4906724;29;20020;-83
2021/09/15 10:29:32;;;;;;;9.02;4.15;;;;;;;;;;4911591;29;20028;-84
2021/09/15 10:32:30;;;;;;;6.83;4.47;;;;;;;;;;4913749;29;20024;-83
2021/09/15 10:35:35;;;;;;;8.20;4.15;;;;;;;;;;4914325;29;20122;-82
2021/09/15 10:38:40;;;;;;;6.63;4.20;;;;;;;;;;4909365;29;20032;-82
2021/09/15 10:41:47;;;;;;;9.80;4.60;;;;;;;;;;4901728;29;20024;-82
2021/09/15 10:44:33;;;;;;;8.38;4.40;;;;;;;;;;4897996;29;20040;-83
2021/09/15 10:47:21;;;;;;;10.27;5.50;;;;;;;;;;4898779;29;20035;-84
2021/09/15 10:50:07;;;;;;;5.88;3.97;;;;;;;;;;4895719;29;20032;-84
2021/09/15 10:53:13;;;;;;;7.85;4.68;;;;;;;;;;4898892;29;20032;-85
2021/09/15 10:56:02;;;;;;;10.00;4.25;;;;;;;;;;4900045;29;20062;-86
2021/09/15 10:58:47;;;;;;;9.88;6.63;;;;;;;;;;4891788;29;20046;-84
2021/09/15 11:01:38;;;;;;;8.32;4.90;;;;;;;;;;4898280;29;20032;-83
2021/09/15 11:04:33;;;;;;;8.13;4.40;;;;;;;;;;4886296;29;20395;-84
2021/09/15 11:07:37;;;;;;;8.23;4.88;;;;;;;;;;4893859;29;20032;-84
2021/09/15 11:10:34;;;;;;;7.05;4.28;;;;;;;;;;4883301;29;20024;-84
2021/09/15 11:13:41;;;;;;;8.32;4.57;;;;;;;;;;4893701;29;20028;-85
2021/09/15 11:16:32;;;;;;;5.65;4.20;;;;;;;;;;4881801;29;20130;-85
2021/09/15 11:19:19;;;;;;;8.00;4.50;;;;;;;;;;4896878;29;20757;-85
2021/09/15 11:22:04;;;;;;;9.20;4.88;;;;;;;;;;4899154;29;20092;-84
2021/09/15 11:24:55;;;;;;;7.95;4.18;;;;;;;;;;4893723;29;20064;-86
2021/09/15 11:27:40;;;;;;;5.72;4.10;;;;;;;;;;4896899;29;20463;-87
2021/09/15 11:30:25;;;;;;;8.00;4.45;;;;;;;;;;4894050;29;20039;-85
2021/09/15 11:33:11;;;;;;;10.32;4.43;;;;;;;;;;4895086;29;20028;-86
2021/09/15 11:36:03;;;;;;;9.27;4.93;;;;;;;;;;4891730;29;20024;-85
2021/09/15 11:38:48;;;;;;;9.07;4.53;;;;;;;;;;4892160;29;20040;-85
2021/09/15 11:41:33;;;;;;;6.95;4.65;;;;;;;;;;4893738;29;20036;-86
2021/09/15 11:44:23;;;;;;;7.13;4.55;;;;;;;;;;4910467;29;20063;-86
2021/09/15 11:47:09;;;;;;;8.07;4.72;;;;;;;;;;4911580;29;20170;-88
2021/09/15 11:49:54;;;;;;;7.47;4.68;;;;;;;;;;4910322;29;20525;-87
2021/09/15 11:52:40;;;;;;;6.70;4.72;;;;;;;;;;4912474;29;20032;-88
2021/09/15 11:55:29;;;;;;;9.07;4.68;;;;;;;;;;4912787;29;20031;-85
2021/09/15 11:58:14;;;;;;;5.47;4.13;;;;;;;;;;4924094;29;20521;-86
2021/09/15 12:01:03;;;;;;;8.13;4.93;;;;;;;;;;4911602;29;20024;-87
2021/09/15 12:03:51;;;;;;;9.90;4.40;;;;;;;;;;4914037;29;20306;-87
2021/09/15 12:06:37;;;;;;;6.80;4.15;;;;;;;;;;4912006;29;20032;-85
2021/09/15 12:09:24;;;;;;;6.57;4.35;;;;;;;;;;4912834;29;20094;-86
2021/09/15 12:12:10;;;;;;;7.10;4.72;;;;;;;;;;4915859;29;20031;-85
2021/09/15 12:14:56;;;;;;;8.52;4.47;;;;;;;;;;4909629;29;20069;-86
2021/09/15 12:17:52;;;;;;;9.57;4.93;;;;;;;;;;4909723;29;20111;-85
2021/09/15 12:20:38;;;;;;;13.02;5.45;;;;;;;;;;4905256;29;20034;-86
2021/09/15 12:23:34;;;;;;;9.57;4.97;;;;;;;;;;4914352;29;20375;-85
2021/09/15 12:26:24;;;;;;;8.40;4.80;;;;;;;;;;4912831;29;20031;-84
2021/09/15 12:29:11;;;;;;;6.05;4.90;;;;;;;;;;4909705;29;20043;-86
2021/09/15 12:32:02;;;;;;;8.77;5.18;;;;;;;;;;4898004;29;20020;-86
2021/09/15 12:34:48;;;;;;;7.50;5.43;;;;;;;;;;4910229;29;20031;-85
2021/09/15 12:37:40;;;;;;;11.80;4.70;;;;;;;;;;4911455;29;20051;-82
2021/09/15 12:41:10;;;;;;;8.63;4.60;;;;;;;;;;4915181;29;20026;-86
2021/09/15 12:43:36;;;;;;;6.28;4.50;;;;;;;;;;4919701;29;20039;-83
2021/09/15 12:46:29;;;;;;;8.57;4.88;;;;;;;;;;4911622;29;20028;-84
2021/09/15 12:49:28;;;;;;;7.75;4.95;;;;;;;;;;4915205;29;20071;-84
2021/09/15 12:52:13;;;;;;;8.30;4.80;;;;;;;;;;4912760;29;20123;-83
2021/09/15 12:55:00;;;;;;;9.75;4.78;;;;;;;;;;4917046;29;20034;-83
2021/09/15 12:57:57;;;;;;;9.57;4.82;;;;;;;;;;4916044;29;20036;-84
2021/09/15 13:00:44;;;;;;;6.95;5.07;;;;;;;;;;4916043;29;20040;-85
2021/09/15 13:03:36;;;;;;;6.35;4.47;;;;;;;;;;4911179;29;20023;-84
2021/09/15 13:06:23;;;;;;;7.95;4.32;;;;;;;;;;4912872;29;20024;-85
2021/09/15 13:09:10;;;;;;;8.10;4.88;;;;;;;;;;4915923;29;20051;-84
2021/09/15 13:11:55;;;;;;;7.20;4.40;;;;;;;;;;4915072;29;20123;-82
2021/09/15 13:14:40;;;;;;;6.45;4.20;;;;;;;;;;4902478;29;20024;-84
2021/09/15 13:17:26;;;;;;;6.57;4.40;;;;;;;;;;4914554;29;20027;-82
2021/09/15 13:20:15;;;;;;;7.07;4.10;;;;;;;;;;4915899;29;20611;-83
2021/09/15 13:23:00;;;;;;;6.47;4.28;;;;;;;;;;4914858;29;20116;-83
2021/09/15 13:25:46;;;;;;;9.30;4.53;;;;;;;;;;4915867;29;20062;-84
2021/09/15 13:28:31;;;;;;;6.95;4.47;;;;;;;;;;4918450;29;20040;-83
2021/09/15 13:31:18;;;;;;;10.80;5.25;;;;;;;;;;4915115;29;20028;-84
2021/09/15 13:34:03;;;;;;;10.82;4.13;;;;;;;;;;4915228;29;20030;-84
2021/09/15 13:36:49;;;;;;;5.43;3.80;;;;;;;;;;4915805;29;20035;-83
2021/09/15 13:39:35;;;;;;;8.00;4.55;;;;;;;;;;4912647;29;20031;-83
2021/09/15 13:42:20;;;;;;;7.85;5.18;;;;;;;;;;4915080;29;20043;-84
2021/09/15 13:45:06;;;;;;;7.47;4.63;;;;;;;;;;4912468;29;20114;-84
2021/09/15 13:47:51;;;;;;;6.10;3.90;;;;;;;;;;4913193;29;20118;-84
2021/09/15 13:50:36;;;;;;;6.35;3.80;;;;;;;;;;4914412;29;20466;-84
2021/09/15 13:53:22;;;;;;;7.32;4.35;;;;;;;;;;4914934;29;20058;-83
2021/09/15 13:56:07;;;;;;;6.32;4.25;;;;;;;;;;4914048;29;20032;-85
2021/09/15 13:58:52;;;;;;;5.70;3.72;;;;;;;;;;4911998;29;20042;-85
2021/09/15 14:01:38;;;;;;;7.47;4.75;;;;;;;;;;4915657;29;20098;-85
2021/09/15 14:04:23;;;;;;;5.93;4.13;;;;;;;;;;4918484;29;20027;-83
2021/09/15 14:07:08;;;;;;;6.63;4.18;;;;;;;;;;4915958;29;20031;-84
2021/09/15 14:09:53;;;;;;;9.18;4.45;;;;;;;;;;4917677;29;20027;-84
2021/09/15 14:12:39;;;;;;;6.00;3.67;;;;;;;;;;4915406;29;20038;-85
2021/09/15 14:15:25;;;;;;;7.68;3.90;;;;;;;;;;4919213;29;20113;-84
2021/09/15 14:18:10;;;;;;;6.85;3.65;;;;;;;;;;4914202;29;20024;-84
2021/09/15 14:20:56;;;;;;;7.22;3.80;;;;;;;;;;4919159;29;20058;-84
2021/09/15 14:23:41;;;;;;;8.57;3.88;;;;;;;;;;4919680;29;20028;-83
2021/09/15 14:26:27;;;;;;;5.43;4.22;;;;;;;;;;4912267;29;20019;-85
2021/09/15 14:29:12;;;;;;;6.78;3.95;;;;;;;;;;4919063;29;20035;-86
2021/09/15 14:31:57;;;;;;;6.78;4.20;;;;;;;;;;4915381;29;20036;-85
2021/09/15 14:34:42;;;;;;;8.70;4.18;;;;;;;;;;4912393;29;20318;-85
2021/09/15 14:37:30;;;;;;;10.43;4.57;;;;;;;;;;4915466;29;20063;-84
2021/09/15 14:40:15;;;;;;;9.43;4.47;;;;;;;;;;4918054;29;20031;-86
2021/09/15 14:43:01;;;;;;;8.05;4.63;;;;;;;;;;4916470;29;20051;-85
2021/09/15 14:45:46;;;;;;;6.60;4.43;;;;;;;;;;4917701;29;20332;-85
2021/09/15 14:48:32;;;;;;;8.93;5.25;;;;;;;;;;4917413;29;20086;-87
2021/09/15 14:51:17;;;;;;;10.65;4.45;;;;;;;;;;4920197;29;20039;-85
2021/09/15 14:54:02;;;;;;;7.25;3.80;;;;;;;;;;4918021;29;20040;-86
2021/09/15 14:56:47;;;;;;;7.85;3.65;;;;;;;;;;4917395;29;20498;-85
2021/09/15 14:59:33;;;;;;;8.45;4.60;;;;;;;;;;4915884;29;20043;-85
2021/09/15 15:02:18;;;;;;;6.95;4.40;;;;;;;;;;4916546;29;20051;-85
2021/09/15 15:05:05;;;;;;;6.28;4.28;;;;;;;;;;4916584;29;20110;-84
2021/09/15 15:07:50;;;;;;;10.00;5.00;;;;;;;;;;4917090;29;20023;-86
2021/09/15 15:10:35;;;;;;;7.25;4.78;;;;;;;;;;4919448;29;20024;-86
2021/09/15 15:13:21;;;;;;;10.48;4.93;;;;;;;;;;4915502;29;20027;-84
2021/09/15 15:16:06;;;;;;;8.20;4.65;;;;;;;;;;4915938;29;20028;-85
2021/09/15 15:18:51;;;;;;;10.48;4.70;;;;;;;;;;4914945;29;20028;-85
2021/09/15 15:21:37;;;;;;;8.35;4.07;;;;;;;;;;4925090;29;20114;-85
2021/09/15 15:24:24;;;;;;;7.35;4.85;;;;;;;;;;4914709;29;20030;-84
2021/09/15 15:27:10;;;;;;;9.40;4.40;;;;;;;;;;4920278;29;20023;-86
2021/09/15 15:29:57;;;;;;;6.38;4.40;;;;;;;;;;4903716;29;20039;-87
2021/09/15 15:32:44;;;;;;;12.10;4.78;;;;;;;;;;4916122;29;20049;-86
2021/09/15 15:35:29;;;;;;;8.25;4.32;;;;;;;;;;4911183;29;20059;-86
2021/09/15 15:38:16;;;;;;;9.88;4.97;;;;;;;;;;4912572;29;20363;-84
2021/09/15 15:41:02;;;;;;;7.75;4.13;;;;;;;;;;4917706;29;20023;-84
2021/09/15 15:43:47;;;;;;;8.45;4.82;;;;;;;;;;4921716;29;20751;-85
2021/09/15 15:46:32;;;;;;;5.13;3.80;;;;;;;;;;4916897;29;20028;-86
2021/09/15 15:49:17;;;;;;;7.20;3.90;;;;;;;;;;4916053;29;20106;-86
2021/09/15 15:52:04;;;;;;;6.40;4.00;;;;;;;;;;4920124;29;20024;-86
2021/09/15 15:54:50;;;;;;;10.35;4.20;;;;;;;;;;4916164;29;20302;-86
2021/09/15 15:57:37;;;;;;;7.50;4.22;;;;;;;;;;4913536;29;20036;-85
2021/09/15 16:00:23;;;;;;;5.65;3.65;;;;;;;;;;4914255;29;20359;-87
2021/09/15 16:03:09;;;;;;;7.03;4.00;;;;;;;;;;4915240;29;20352;-86
2021/09/15 16:05:54;;;;;;;8.10;4.68;;;;;;;;;;4915089;29;20024;-86
2021/09/15 16:08:39;;;;;;;7.38;4.65;;;;;;;;;;4923582;29;20066;-85
2021/09/15 16:11:25;;;;;;;6.25;4.28;;;;;;;;;;4914973;29;20035;-84
2021/09/15 16:14:11;;;;;;;8.60;4.53;;;;;;;;;;4915638;29;20031;-84
2021/09/15 16:16:56;;;;;;;7.50;4.22;;;;;;;;;;4913302;29;20661;-82
2021/09/15 16:19:41;;;;;;;7.72;4.90;;;;;;;;;;4915194;29;20027;-83
2021/09/15 16:22:26;;;;;;;10.38;4.63;;;;;;;;;;4915985;29;20024;-84
2021/09/15 16:25:12;;;;;;;6.57;3.85;;;;;;;;;;4915497;29;20030;-82
2021/09/15 16:27:57;;;;;;;8.80;4.65;;;;;;;;;;4915919;29;20042;-83
2021/09/15 16:30:42;;;;;;;8.85;5.10;;;;;;;;;;4918213;29;20044;-83
2021/09/15 16:33:27;;;;;;;7.05;3.95;;;;;;;;;;4902737;29;20050;-84
2021/09/15 16:36:13;;;;;;;8.27;3.95;;;;;;;;;;4916156;29;20051;-84
2021/09/15 16:38:58;;;;;;;9.52;4.32;;;;;;;;;;4920480;29;20040;-84